sensor_id;sensor_type;location;lat;lon;timestamp;P1;durP1;ratioP1;P2;durP2;ratioP2
32934;SDS011;19292;51.532;7.650;2022-08-18T00:00:42;58.83;;;52.90;;
32934;SDS011;19292;51.532;7.650;2022-08-18T00:03:07;61.30;;;55.00;;
32934;SDS011;19292;51.532;7.650;2022-08-18T00:05:33;65.95;;;59.05;;
32934;SDS011;19292;51.532;7.650;2022-08-18T00:07:59;66.07;;;59.25;;
32934;SDS011;19292;51.532;7.650;2022-08-18T00:10:25;64.57;;;57.97;;
32934;SDS011;19292;51.532;7.650;2022-08-18T00:12:50;64.38;;;57.65;;
32934;SDS011;19292;51.532;7.650;2022-08-18T00:15:16;64.63;;;58.00;;
32934;SDS011;19292;51.532;7.650;2022-08-18T00:17:42;62.80;;;56.22;;
32934;SDS011;19292;51.532;7.650;2022-08-18T00:20:10;66.70;;;60.03;;
32934;SDS011;19292;51.532;7.650;2022-08-18T00:22:37;64.38;;;57.83;;
32934;SDS011;19292;51.532;7.650;2022-08-18T00:25:04;63.35;;;56.63;;
32934;SDS011;19292;51.532;7.650;2022-08-18T00:27:31;67.28;;;60.25;;
32934;SDS011;19292;51.532;7.650;2022-08-18T00:29:57;62.95;;;56.65;;
32934;SDS011;19292;51.532;7.650;2022-08-18T00:32:25;63.45;;;56.65;;
32934;SDS011;19292;51.532;7.650;2022-08-18T00:35:03;62.28;;;55.85;;
32934;SDS011;19292;51.532;7.650;2022-08-18T00:37:32;66.15;;;59.17;;
32934;SDS011;19292;51.532;7.650;2022-08-18T00:39:58;61.92;;;55.47;;
32934;SDS011;19292;51.532;7.650;2022-08-18T00:42:24;60.47;;;53.97;;
32934;SDS011;19292;51.532;7.650;2022-08-18T00:44:51;61.97;;;55.55;;
32934;SDS011;19292;51.532;7.650;2022-08-18T00:47:16;63.30;;;56.75;;
32934;SDS011;19292;51.532;7.650;2022-08-18T00:49:42;60.03;;;53.90;;
32934;SDS011;19292;51.532;7.650;2022-08-18T00:52:08;62.40;;;56.00;;
32934;SDS011;19292;51.532;7.650;2022-08-18T00:54:36;63.35;;;56.88;;
32934;SDS011;19292;51.532;7.650;2022-08-18T00:57:06;63.75;;;57.13;;
32934;SDS011;19292;51.532;7.650;2022-08-18T01:02:18;63.35;;;56.85;;
32934;SDS011;19292;51.532;7.650;2022-08-18T01:04:56;61.60;;;55.13;;
32934;SDS011;19292;51.532;7.650;2022-08-18T01:07:32;59.00;;;53.00;;
32934;SDS011;19292;51.532;7.650;2022-08-18T01:10:00;61.42;;;54.08;;
32934;SDS011;19292;51.532;7.650;2022-08-18T01:12:28;60.40;;;53.90;;
32934;SDS011;19292;51.532;7.650;2022-08-18T01:14:54;62.60;;;56.28;;
32934;SDS011;19292;51.532;7.650;2022-08-18T01:17:23;58.22;;;52.25;;
32934;SDS011;19292;51.532;7.650;2022-08-18T01:20:09;59.55;;;53.63;;
32934;SDS011;19292;51.532;7.650;2022-08-18T01:23:00;57.80;;;52.00;;
32934;SDS011;19292;51.532;7.650;2022-08-18T01:25:28;58.10;;;52.38;;
32934;SDS011;19292;51.532;7.650;2022-08-18T01:28:13;57.08;;;51.50;;
32934;SDS011;19292;51.532;7.650;2022-08-18T01:30:45;61.20;;;54.83;;
32934;SDS011;19292;51.532;7.650;2022-08-18T01:33:13;57.67;;;51.78;;
32934;SDS011;19292;51.532;7.650;2022-08-18T01:35:39;62.42;;;55.92;;
32934;SDS011;19292;51.532;7.650;2022-08-18T01:38:05;61.00;;;54.67;;
32934;SDS011;19292;51.532;7.650;2022-08-18T01:40:30;57.40;;;51.60;;
32934;SDS011;19292;51.532;7.650;2022-08-18T01:42:56;60.58;;;54.55;;
32934;SDS011;19292;51.532;7.650;2022-08-18T01:45:22;61.28;;;54.75;;
32934;SDS011;19292;51.532;7.650;2022-08-18T01:47:47;63.45;;;56.80;;
32934;SDS011;19292;51.532;7.650;2022-08-18T01:50:14;60.42;;;54.28;;
32934;SDS011;19292;51.532;7.650;2022-08-18T01:52:40;60.85;;;54.42;;
32934;SDS011;19292;51.532;7.650;2022-08-18T01:55:06;61.95;;;55.58;;
32934;SDS011;19292;51.532;7.650;2022-08-18T01:57:38;60.20;;;53.78;;
32934;SDS011;19292;51.532;7.650;2022-08-18T02:00:09;60.35;;;53.75;;
32934;SDS011;19292;51.532;7.650;2022-08-18T02:02:36;63.20;;;56.60;;
32934;SDS011;19292;51.532;7.650;2022-08-18T02:05:04;62.20;;;54.72;;
32934;SDS011;19292;51.532;7.650;2022-08-18T02:07:32;60.65;;;54.25;;
32934;SDS011;19292;51.532;7.650;2022-08-18T02:09:59;61.03;;;54.65;;
32934;SDS011;19292;51.532;7.650;2022-08-18T02:12:24;61.72;;;55.20;;
32934;SDS011;19292;51.532;7.650;2022-08-18T02:14:50;61.28;;;54.95;;
32934;SDS011;19292;51.532;7.650;2022-08-18T02:17:17;60.00;;;53.83;;
32934;SDS011;19292;51.532;7.650;2022-08-18T02:19:43;59.58;;;53.33;;
32934;SDS011;19292;51.532;7.650;2022-08-18T02:22:12;61.63;;;55.13;;
32934;SDS011;19292;51.532;7.650;2022-08-18T02:24:39;64.97;;;57.92;;
32934;SDS011;19292;51.532;7.650;2022-08-18T02:27:05;60.17;;;53.95;;
32934;SDS011;19292;51.532;7.650;2022-08-18T02:29:31;62.67;;;56.25;;
32934;SDS011;19292;51.532;7.650;2022-08-18T02:31:57;62.05;;;55.63;;
32934;SDS011;19292;51.532;7.650;2022-08-18T02:34:22;62.88;;;56.42;;
32934;SDS011;19292;51.532;7.650;2022-08-18T02:36:49;63.80;;;55.85;;
32934;SDS011;19292;51.532;7.650;2022-08-18T02:39:15;61.50;;;54.97;;
32934;SDS011;19292;51.532;7.650;2022-08-18T02:41:40;61.30;;;55.13;;
32934;SDS011;19292;51.532;7.650;2022-08-18T02:44:06;61.75;;;55.13;;
32934;SDS011;19292;51.532;7.650;2022-08-18T02:46:32;63.90;;;57.13;;
32934;SDS011;19292;51.532;7.650;2022-08-18T02:48:58;63.75;;;56.95;;
32934;SDS011;19292;51.532;7.650;2022-08-18T02:51:24;62.78;;;55.97;;
32934;SDS011;19292;51.532;7.650;2022-08-18T02:53:50;65.82;;;59.03;;
32934;SDS011;19292;51.532;7.650;2022-08-18T02:56:19;62.45;;;55.72;;
32934;SDS011;19292;51.532;7.650;2022-08-18T02:58:51;59.10;;;53.03;;
32934;SDS011;19292;51.532;7.650;2022-08-18T03:01:24;63.17;;;56.30;;
32934;SDS011;19292;51.532;7.650;2022-08-18T03:03:51;60.38;;;54.10;;
32934;SDS011;19292;51.532;7.650;2022-08-18T03:06:17;61.42;;;54.63;;
32934;SDS011;19292;51.532;7.650;2022-08-18T03:08:43;59.33;;;53.13;;
32934;SDS011;19292;51.532;7.650;2022-08-18T03:11:14;59.70;;;53.40;;
32934;SDS011;19292;51.532;7.650;2022-08-18T03:13:40;58.10;;;51.88;;
32934;SDS011;19292;51.532;7.650;2022-08-18T03:16:06;57.13;;;51.13;;
32934;SDS011;19292;51.532;7.650;2022-08-18T03:18:31;60.20;;;53.78;;
32934;SDS011;19292;51.532;7.650;2022-08-18T03:21:03;58.83;;;52.67;;
32934;SDS011;19292;51.532;7.650;2022-08-18T03:23:31;57.35;;;51.50;;
32934;SDS011;19292;51.532;7.650;2022-08-18T03:25:57;57.20;;;51.15;;
32934;SDS011;19292;51.532;7.650;2022-08-18T03:28:22;58.58;;;52.40;;
32934;SDS011;19292;51.532;7.650;2022-08-18T03:30:47;58.33;;;52.22;;
32934;SDS011;19292;51.532;7.650;2022-08-18T03:33:13;57.92;;;51.88;;
32934;SDS011;19292;51.532;7.650;2022-08-18T03:35:38;58.83;;;52.47;;
32934;SDS011;19292;51.532;7.650;2022-08-18T03:38:05;59.83;;;53.38;;
32934;SDS011;19292;51.532;7.650;2022-08-18T03:40:30;60.63;;;53.13;;
32934;SDS011;19292;51.532;7.650;2022-08-18T03:42:55;68.93;;;57.47;;
32934;SDS011;19292;51.532;7.650;2022-08-18T03:45:21;72.72;;;57.58;;
32934;SDS011;19292;51.532;7.650;2022-08-18T03:47:48;78.80;;;61.47;;
32934;SDS011;19292;51.532;7.650;2022-08-18T03:50:16;83.88;;;63.58;;
32934;SDS011;19292;51.532;7.650;2022-08-18T03:52:43;84.03;;;65.97;;
32934;SDS011;19292;51.532;7.650;2022-08-18T03:55:12;89.00;;;67.63;;
32934;SDS011;19292;51.532;7.650;2022-08-18T03:57:39;88.75;;;69.80;;
32934;SDS011;19292;51.532;7.650;2022-08-18T04:00:06;90.72;;;68.35;;
32934;SDS011;19292;51.532;7.650;2022-08-18T04:02:33;87.97;;;69.00;;
32934;SDS011;19292;51.532;7.650;2022-08-18T04:04:59;86.75;;;67.55;;
32934;SDS011;19292;51.532;7.650;2022-08-18T04:07:24;85.95;;;68.93;;
32934;SDS011;19292;51.532;7.650;2022-08-18T04:09:49;85.00;;;66.88;;
32934;SDS011;19292;51.532;7.650;2022-08-18T04:12:15;77.88;;;64.03;;
32934;SDS011;19292;51.532;7.650;2022-08-18T04:14:43;82.47;;;64.95;;
32934;SDS011;19292;51.532;7.650;2022-08-18T04:17:11;81.85;;;64.03;;
32934;SDS011;19292;51.532;7.650;2022-08-18T04:19:37;83.75;;;64.82;;
32934;SDS011;19292;51.532;7.650;2022-08-18T04:22:02;84.28;;;65.70;;
32934;SDS011;19292;51.532;7.650;2022-08-18T04:24:29;89.07;;;68.70;;
32934;SDS011;19292;51.532;7.650;2022-08-18T04:26:55;93.47;;;68.90;;
32934;SDS011;19292;51.532;7.650;2022-08-18T04:29:22;83.38;;;63.17;;
32934;SDS011;19292;51.532;7.650;2022-08-18T04:31:48;84.00;;;61.95;;
32934;SDS011;19292;51.532;7.650;2022-08-18T04:34:15;75.03;;;58.55;;
32934;SDS011;19292;51.532;7.650;2022-08-18T04:36:41;70.45;;;57.60;;
32934;SDS011;19292;51.532;7.650;2022-08-18T04:39:08;73.15;;;59.35;;
32934;SDS011;19292;51.532;7.650;2022-08-18T04:41:35;70.72;;;58.05;;
32934;SDS011;19292;51.532;7.650;2022-08-18T04:44:03;75.03;;;59.40;;
32934;SDS011;19292;51.532;7.650;2022-08-18T04:46:31;78.35;;;61.65;;
32934;SDS011;19292;51.532;7.650;2022-08-18T04:49:00;75.97;;;59.85;;
32934;SDS011;19292;51.532;7.650;2022-08-18T04:51:26;72.93;;;57.55;;
32934;SDS011;19292;51.532;7.650;2022-08-18T04:53:54;65.65;;;54.35;;
32934;SDS011;19292;51.532;7.650;2022-08-18T04:56:24;70.88;;;56.58;;
32934;SDS011;19292;51.532;7.650;2022-08-18T04:58:52;75.95;;;57.97;;
32934;SDS011;19292;51.532;7.650;2022-08-18T05:01:23;73.63;;;57.75;;
32934;SDS011;19292;51.532;7.650;2022-08-18T05:03:50;73.13;;;57.70;;
32934;SDS011;19292;51.532;7.650;2022-08-18T05:06:18;80.38;;;61.85;;
32934;SDS011;19292;51.532;7.650;2022-08-18T05:08:45;83.30;;;62.42;;
32934;SDS011;19292;51.532;7.650;2022-08-18T05:11:15;75.28;;;59.35;;
32934;SDS011;19292;51.532;7.650;2022-08-18T05:13:40;83.45;;;64.60;;
32934;SDS011;19292;51.532;7.650;2022-08-18T05:16:06;75.45;;;57.60;;
32934;SDS011;19292;51.532;7.650;2022-08-18T05:18:33;70.65;;;55.38;;
32934;SDS011;19292;51.532;7.650;2022-08-18T05:21:03;72.55;;;56.20;;
32934;SDS011;19292;51.532;7.650;2022-08-18T05:23:29;76.45;;;58.97;;
32934;SDS011;19292;51.532;7.650;2022-08-18T05:25:58;74.63;;;58.53;;
32934;SDS011;19292;51.532;7.650;2022-08-18T05:30:51;73.30;;;54.80;;
32934;SDS011;19292;51.532;7.650;2022-08-18T05:33:17;76.80;;;61.28;;
32934;SDS011;19292;51.532;7.650;2022-08-18T05:35:46;73.55;;;58.67;;
32934;SDS011;19292;51.532;7.650;2022-08-18T05:38:25;77.55;;;59.97;;
32934;SDS011;19292;51.532;7.650;2022-08-18T05:41:19;76.55;;;60.70;;
32934;SDS011;19292;51.532;7.650;2022-08-18T05:43:48;82.85;;;63.45;;
32934;SDS011;19292;51.532;7.650;2022-08-18T05:46:15;78.18;;;58.33;;
32934;SDS011;19292;51.532;7.650;2022-08-18T05:48:41;78.95;;;61.70;;
32934;SDS011;19292;51.532;7.650;2022-08-18T05:51:15;79.63;;;59.67;;
32934;SDS011;19292;51.532;7.650;2022-08-18T05:53:42;80.93;;;60.30;;
32934;SDS011;19292;51.532;7.650;2022-08-18T05:56:28;84.70;;;64.78;;
32934;SDS011;19292;51.532;7.650;2022-08-18T05:59:13;92.22;;;68.60;;
32934;SDS011;19292;51.532;7.650;2022-08-18T06:01:45;88.18;;;63.67;;
32934;SDS011;19292;51.532;7.650;2022-08-18T06:04:27;84.60;;;61.30;;
32934;SDS011;19292;51.532;7.650;2022-08-18T06:06:57;98.43;;;68.20;;
32934;SDS011;19292;51.532;7.650;2022-08-18T06:11:53;92.97;;;64.25;;
32934;SDS011;19292;51.532;7.650;2022-08-18T06:14:22;99.25;;;67.70;;
32934;SDS011;19292;51.532;7.650;2022-08-18T06:19:51;104.93;;;66.57;;
32934;SDS011;19292;51.532;7.650;2022-08-18T06:22:27;106.25;;;68.95;;
32934;SDS011;19292;51.532;7.650;2022-08-18T06:25:15;106.35;;;70.72;;
32934;SDS011;19292;51.532;7.650;2022-08-18T06:42:05;110.53;;;70.05;;
32934;SDS011;19292;51.532;7.650;2022-08-18T06:44:33;115.15;;;71.50;;
32934;SDS011;19292;51.532;7.650;2022-08-18T06:49:47;112.18;;;71.32;;
32934;SDS011;19292;51.532;7.650;2022-08-18T06:52:28;120.38;;;74.80;;
32934;SDS011;19292;51.532;7.650;2022-08-18T06:54:55;114.43;;;71.20;;
32934;SDS011;19292;51.532;7.650;2022-08-18T06:57:24;113.40;;;71.65;;
32934;SDS011;19292;51.532;7.650;2022-08-18T07:00:04;113.43;;;73.25;;
32934;SDS011;19292;51.532;7.650;2022-08-18T07:07:38;97.43;;;63.90;;
32934;SDS011;19292;51.532;7.650;2022-08-18T07:10:06;102.10;;;66.28;;
32934;SDS011;19292;51.532;7.650;2022-08-18T07:12:51;104.15;;;67.43;;
32934;SDS011;19292;51.532;7.650;2022-08-18T07:15:30;101.13;;;65.53;;
32934;SDS011;19292;51.532;7.650;2022-08-18T07:18:06;100.03;;;65.82;;
32934;SDS011;19292;51.532;7.650;2022-08-18T07:20:44;90.65;;;57.85;;
32934;SDS011;19292;51.532;7.650;2022-08-18T07:26:14;95.15;;;61.75;;
32934;SDS011;19292;51.532;7.650;2022-08-18T07:28:45;94.55;;;65.53;;
32934;SDS011;19292;51.532;7.650;2022-08-18T07:36:31;95.35;;;63.42;;
32934;SDS011;19292;51.532;7.650;2022-08-18T07:39:10;87.22;;;57.63;;
32934;SDS011;19292;51.532;7.650;2022-08-18T07:41:42;93.63;;;57.42;;
32934;SDS011;19292;51.532;7.650;2022-08-18T07:44:16;91.97;;;56.40;;
32934;SDS011;19292;51.532;7.650;2022-08-18T07:46:56;85.55;;;62.50;;
32934;SDS011;19292;51.532;7.650;2022-08-18T07:49:25;90.03;;;59.80;;
32934;SDS011;19292;51.532;7.650;2022-08-18T08:00:52;84.90;;;54.97;;
32934;SDS011;19292;51.532;7.650;2022-08-18T08:21:36;81.57;;;54.83;;
32934;SDS011;19292;51.532;7.650;2022-08-18T08:24:13;82.50;;;53.53;;
32934;SDS011;19292;51.532;7.650;2022-08-18T08:29:21;91.75;;;58.47;;
32934;SDS011;19292;51.532;7.650;2022-08-18T08:35:25;96.18;;;59.45;;
32934;SDS011;19292;51.532;7.650;2022-08-18T08:37:47;85.00;;;56.58;;
32934;SDS011;19292;51.532;7.650;2022-08-18T08:45:28;88.90;;;56.60;;
32934;SDS011;19292;51.532;7.650;2022-08-18T08:47:59;85.30;;;57.70;;
32934;SDS011;19292;51.532;7.650;2022-08-18T08:50:28;86.03;;;58.38;;
32934;SDS011;19292;51.532;7.650;2022-08-18T08:52:59;93.93;;;56.85;;
32934;SDS011;19292;51.532;7.650;2022-08-18T08:55:36;86.72;;;56.15;;
32934;SDS011;19292;51.532;7.650;2022-08-18T09:00:41;86.75;;;54.92;;
32934;SDS011;19292;51.532;7.650;2022-08-18T09:05:55;87.55;;;55.28;;
32934;SDS011;19292;51.532;7.650;2022-08-18T09:11:38;85.75;;;56.85;;
32934;SDS011;19292;51.532;7.650;2022-08-18T09:25:33;82.22;;;53.03;;
32934;SDS011;19292;51.532;7.650;2022-08-18T09:28:09;80.18;;;55.92;;
32934;SDS011;19292;51.532;7.650;2022-08-18T09:42:01;85.15;;;55.55;;
32934;SDS011;19292;51.532;7.650;2022-08-18T09:47:10;78.82;;;53.17;;
32934;SDS011;19292;51.532;7.650;2022-08-18T09:57:42;73.35;;;51.53;;
32934;SDS011;19292;51.532;7.650;2022-08-18T10:10:47;59.85;;;43.47;;
32934;SDS011;19292;51.532;7.650;2022-08-18T10:16:17;66.80;;;48.13;;
32934;SDS011;19292;51.532;7.650;2022-08-18T10:24:19;72.72;;;50.03;;
32934;SDS011;19292;51.532;7.650;2022-08-18T10:45:34;58.55;;;42.33;;
32934;SDS011;19292;51.532;7.650;2022-08-18T10:50:28;55.65;;;40.00;;
32934;SDS011;19292;51.532;7.650;2022-08-18T10:55:27;52.88;;;38.75;;
32934;SDS011;19292;51.532;7.650;2022-08-18T10:58:04;53.75;;;41.83;;
32934;SDS011;19292;51.532;7.650;2022-08-18T11:00:40;54.88;;;41.38;;
32934;SDS011;19292;51.532;7.650;2022-08-18T11:03:16;49.53;;;38.15;;
32934;SDS011;19292;51.532;7.650;2022-08-18T11:06:05;48.38;;;41.75;;
32934;SDS011;19292;51.532;7.650;2022-08-18T11:08:41;47.30;;;36.15;;
32934;SDS011;19292;51.532;7.650;2022-08-18T11:11:09;53.47;;;38.95;;
32934;SDS011;19292;51.532;7.650;2022-08-18T11:16:24;47.15;;;37.42;;
32934;SDS011;19292;51.532;7.650;2022-08-18T11:19:10;53.28;;;38.53;;
32934;SDS011;19292;51.532;7.650;2022-08-18T11:26:49;54.03;;;38.50;;
32934;SDS011;19292;51.532;7.650;2022-08-18T11:29:35;52.40;;;38.95;;
32934;SDS011;19292;51.532;7.650;2022-08-18T11:32:06;51.22;;;37.15;;
32934;SDS011;19292;51.532;7.650;2022-08-18T11:34:36;49.00;;;37.75;;
32934;SDS011;19292;51.532;7.650;2022-08-18T11:37:21;48.33;;;37.90;;
32934;SDS011;19292;51.532;7.650;2022-08-18T11:39:48;50.22;;;36.83;;
32934;SDS011;19292;51.532;7.650;2022-08-18T11:42:16;46.22;;;35.85;;
32934;SDS011;19292;51.532;7.650;2022-08-18T11:44:42;50.50;;;38.03;;
32934;SDS011;19292;51.532;7.650;2022-08-18T11:47:13;46.33;;;35.97;;
32934;SDS011;19292;51.532;7.650;2022-08-18T11:49:47;45.60;;;35.55;;
32934;SDS011;19292;51.532;7.650;2022-08-18T11:54:44;44.88;;;35.40;;
32934;SDS011;19292;51.532;7.650;2022-08-18T11:57:26;50.65;;;38.30;;
32934;SDS011;19292;51.532;7.650;2022-08-18T11:59:54;47.40;;;36.85;;
32934;SDS011;19292;51.532;7.650;2022-08-18T12:02:23;44.83;;;36.67;;
32934;SDS011;19292;51.532;7.650;2022-08-18T12:04:51;44.53;;;37.25;;
32934;SDS011;19292;51.532;7.650;2022-08-18T12:10:16;47.38;;;37.80;;
32934;SDS011;19292;51.532;7.650;2022-08-18T12:12:47;49.13;;;38.60;;
32934;SDS011;19292;51.532;7.650;2022-08-18T12:17:39;46.45;;;38.55;;
32934;SDS011;19292;51.532;7.650;2022-08-18T12:20:06;49.85;;;41.35;;
32934;SDS011;19292;51.532;7.650;2022-08-18T12:22:36;43.45;;;37.80;;
32934;SDS011;19292;51.532;7.650;2022-08-18T12:25:03;47.88;;;40.17;;
32934;SDS011;19292;51.532;7.650;2022-08-18T12:27:30;55.72;;;42.50;;
32934;SDS011;19292;51.532;7.650;2022-08-18T12:29:56;52.13;;;41.90;;
32934;SDS011;19292;51.532;7.650;2022-08-18T12:32:25;47.33;;;40.08;;
32934;SDS011;19292;51.532;7.650;2022-08-18T12:34:52;52.90;;;40.58;;
32934;SDS011;19292;51.532;7.650;2022-08-18T12:37:18;46.80;;;39.15;;
32934;SDS011;19292;51.532;7.650;2022-08-18T12:39:46;48.92;;;41.17;;
32934;SDS011;19292;51.532;7.650;2022-08-18T12:42:12;51.47;;;41.15;;
32934;SDS011;19292;51.532;7.650;2022-08-18T12:44:37;44.25;;;39.53;;
32934;SDS011;19292;51.532;7.650;2022-08-18T12:47:04;51.92;;;41.50;;
32934;SDS011;19292;51.532;7.650;2022-08-18T12:49:34;45.45;;;37.50;;
32934;SDS011;19292;51.532;7.650;2022-08-18T12:51:59;46.42;;;37.83;;
32934;SDS011;19292;51.532;7.650;2022-08-18T12:54:24;47.63;;;37.53;;
32934;SDS011;19292;51.532;7.650;2022-08-18T12:56:50;43.90;;;34.70;;
32934;SDS011;19292;51.532;7.650;2022-08-18T12:59:18;47.67;;;40.38;;
32934;SDS011;19292;51.532;7.650;2022-08-18T13:01:43;46.10;;;37.85;;
32934;SDS011;19292;51.532;7.650;2022-08-18T13:04:09;49.28;;;40.85;;
32934;SDS011;19292;51.532;7.650;2022-08-18T13:06:35;45.63;;;39.63;;
32934;SDS011;19292;51.532;7.650;2022-08-18T13:09:02;43.55;;;37.08;;
32934;SDS011;19292;51.532;7.650;2022-08-18T13:11:28;47.03;;;38.88;;
32934;SDS011;19292;51.532;7.650;2022-08-18T13:13:53;42.60;;;36.45;;
32934;SDS011;19292;51.532;7.650;2022-08-18T13:16:19;47.58;;;39.45;;
32934;SDS011;19292;51.532;7.650;2022-08-18T13:18:46;45.88;;;37.72;;
32934;SDS011;19292;51.532;7.650;2022-08-18T13:21:12;41.60;;;33.50;;
32934;SDS011;19292;51.532;7.650;2022-08-18T13:23:39;42.70;;;37.70;;
32934;SDS011;19292;51.532;7.650;2022-08-18T13:26:07;40.05;;;35.78;;
32934;SDS011;19292;51.532;7.650;2022-08-18T13:28:34;44.17;;;39.25;;
32934;SDS011;19292;51.532;7.650;2022-08-18T13:31:00;45.50;;;36.40;;
32934;SDS011;19292;51.532;7.650;2022-08-18T13:33:26;43.83;;;36.47;;
32934;SDS011;19292;51.532;7.650;2022-08-18T13:35:52;41.60;;;34.75;;
32934;SDS011;19292;51.532;7.650;2022-08-18T13:38:18;40.85;;;36.47;;
32934;SDS011;19292;51.532;7.650;2022-08-18T13:40:46;46.00;;;37.97;;
32934;SDS011;19292;51.532;7.650;2022-08-18T13:43:13;42.55;;;36.67;;
32934;SDS011;19292;51.532;7.650;2022-08-18T13:45:42;46.13;;;36.00;;
32934;SDS011;19292;51.532;7.650;2022-08-18T13:48:08;46.25;;;37.67;;
32934;SDS011;19292;51.532;7.650;2022-08-18T13:50:34;42.38;;;36.78;;
32934;SDS011;19292;51.532;7.650;2022-08-18T13:53:04;48.37;;;40.20;;
32934;SDS011;19292;51.532;7.650;2022-08-18T13:55:30;41.83;;;36.00;;
32934;SDS011;19292;51.532;7.650;2022-08-18T13:57:55;37.88;;;33.25;;
32934;SDS011;19292;51.532;7.650;2022-08-18T14:00:22;33.15;;;29.67;;
32934;SDS011;19292;51.532;7.650;2022-08-18T14:02:48;38.45;;;34.42;;
32934;SDS011;19292;51.532;7.650;2022-08-18T14:05:17;42.17;;;35.17;;
32934;SDS011;19292;51.532;7.650;2022-08-18T14:07:43;39.47;;;33.15;;
32934;SDS011;19292;51.532;7.650;2022-08-18T14:10:09;35.63;;;30.88;;
32934;SDS011;19292;51.532;7.650;2022-08-18T14:12:40;30.45;;;27.05;;
32934;SDS011;19292;51.532;7.650;2022-08-18T14:15:09;35.15;;;30.70;;
32934;SDS011;19292;51.532;7.650;2022-08-18T14:17:35;34.50;;;30.88;;
32934;SDS011;19292;51.532;7.650;2022-08-18T14:20:01;38.17;;;33.75;;
32934;SDS011;19292;51.532;7.650;2022-08-18T14:22:46;35.17;;;31.02;;
32934;SDS011;19292;51.532;7.650;2022-08-18T14:25:30;29.27;;;26.17;;
32934;SDS011;19292;51.532;7.650;2022-08-18T14:28:14;29.45;;;25.58;;
32934;SDS011;19292;51.532;7.650;2022-08-18T14:30:42;28.40;;;21.92;;
32934;SDS011;19292;51.532;7.650;2022-08-18T14:33:08;47.03;;;30.52;;
32934;SDS011;19292;51.532;7.650;2022-08-18T14:35:34;26.80;;;23.85;;
32934;SDS011;19292;51.532;7.650;2022-08-18T14:38:00;24.50;;;21.38;;
32934;SDS011;19292;51.532;7.650;2022-08-18T14:40:27;21.50;;;18.08;;
32934;SDS011;19292;51.532;7.650;2022-08-18T14:42:53;17.90;;;16.10;;
32934;SDS011;19292;51.532;7.650;2022-08-18T14:45:19;18.00;;;15.68;;
32934;SDS011;19292;51.532;7.650;2022-08-18T14:47:44;23.15;;;20.85;;
32934;SDS011;19292;51.532;7.650;2022-08-18T14:50:10;35.88;;;30.33;;
32934;SDS011;19292;51.532;7.650;2022-08-18T14:52:40;31.73;;;25.75;;
32934;SDS011;19292;51.532;7.650;2022-08-18T14:55:06;29.92;;;25.38;;
32934;SDS011;19292;51.532;7.650;2022-08-18T14:57:35;25.35;;;22.55;;
32934;SDS011;19292;51.532;7.650;2022-08-18T15:00:01;19.30;;;17.40;;
32934;SDS011;19292;51.532;7.650;2022-08-18T15:02:28;16.80;;;15.05;;
32934;SDS011;19292;51.532;7.650;2022-08-18T15:04:54;18.35;;;16.20;;
32934;SDS011;19292;51.532;7.650;2022-08-18T15:07:19;15.30;;;13.77;;
32934;SDS011;19292;51.532;7.650;2022-08-18T15:09:46;16.67;;;14.98;;
32934;SDS011;19292;51.532;7.650;2022-08-18T15:12:11;14.50;;;12.93;;
32934;SDS011;19292;51.532;7.650;2022-08-18T15:14:41;14.50;;;13.00;;
32934;SDS011;19292;51.532;7.650;2022-08-18T15:17:06;17.02;;;15.20;;
32934;SDS011;19292;51.532;7.650;2022-08-18T15:19:32;15.85;;;13.32;;
32934;SDS011;19292;51.532;7.650;2022-08-18T15:21:57;15.45;;;12.30;;
32934;SDS011;19292;51.532;7.650;2022-08-18T15:24:41;14.48;;;12.93;;
32934;SDS011;19292;51.532;7.650;2022-08-18T15:27:29;18.60;;;16.80;;
32934;SDS011;19292;51.532;7.650;2022-08-18T15:30:00;15.20;;;13.60;;
32934;SDS011;19292;51.532;7.650;2022-08-18T15:32:28;15.93;;;14.32;;
32934;SDS011;19292;51.532;7.650;2022-08-18T15:34:54;14.70;;;13.10;;
32934;SDS011;19292;51.532;7.650;2022-08-18T15:37:19;14.45;;;12.98;;
32934;SDS011;19292;51.532;7.650;2022-08-18T15:39:44;14.23;;;11.88;;
32934;SDS011;19292;51.532;7.650;2022-08-18T15:42:10;14.90;;;13.38;;
32934;SDS011;19292;51.532;7.650;2022-08-18T15:44:36;16.20;;;14.48;;
32934;SDS011;19292;51.532;7.650;2022-08-18T15:47:01;12.95;;;11.65;;
32934;SDS011;19292;51.532;7.650;2022-08-18T15:49:28;17.27;;;13.88;;
32934;SDS011;19292;51.532;7.650;2022-08-18T15:51:54;14.80;;;13.30;;
32934;SDS011;19292;51.532;7.650;2022-08-18T15:54:20;13.90;;;12.50;;
32934;SDS011;19292;51.532;7.650;2022-08-18T15:56:45;12.73;;;11.40;;
32934;SDS011;19292;51.532;7.650;2022-08-18T15:59:14;12.45;;;10.95;;
32934;SDS011;19292;51.532;7.650;2022-08-18T16:01:39;13.90;;;11.05;;
32934;SDS011;19292;51.532;7.650;2022-08-18T16:04:05;11.80;;;10.60;;
32934;SDS011;19292;51.532;7.650;2022-08-18T16:06:32;15.85;;;14.25;;
32934;SDS011;19292;51.532;7.650;2022-08-18T16:08:59;15.00;;;13.68;;
32934;SDS011;19292;51.532;7.650;2022-08-18T16:11:25;16.02;;;14.50;;
32934;SDS011;19292;51.532;7.650;2022-08-18T16:13:51;14.60;;;12.98;;
32934;SDS011;19292;51.532;7.650;2022-08-18T16:16:18;14.93;;;11.10;;
32934;SDS011;19292;51.532;7.650;2022-08-18T16:18:44;13.52;;;12.13;;
32934;SDS011;19292;51.532;7.650;2022-08-18T16:21:11;14.20;;;12.70;;
32934;SDS011;19292;51.532;7.650;2022-08-18T16:23:40;13.40;;;11.82;;
32934;SDS011;19292;51.532;7.650;2022-08-18T16:26:07;13.80;;;12.00;;
32934;SDS011;19292;51.532;7.650;2022-08-18T16:28:33;10.30;;;9.30;;
32934;SDS011;19292;51.532;7.650;2022-08-18T16:30:59;10.63;;;9.65;;
32934;SDS011;19292;51.532;7.650;2022-08-18T16:33:25;12.00;;;10.23;;
32934;SDS011;19292;51.532;7.650;2022-08-18T16:35:50;11.98;;;10.77;;
32934;SDS011;19292;51.532;7.650;2022-08-18T16:38:16;10.35;;;9.35;;
32934;SDS011;19292;51.532;7.650;2022-08-18T16:40:42;13.27;;;10.13;;
32934;SDS011;19292;51.532;7.650;2022-08-18T16:43:08;12.77;;;8.80;;
32934;SDS011;19292;51.532;7.650;2022-08-18T16:45:40;8.18;;;7.38;;
32934;SDS011;19292;51.532;7.650;2022-08-18T16:48:07;9.75;;;8.75;;
32934;SDS011;19292;51.532;7.650;2022-08-18T16:50:33;10.18;;;9.15;;
32934;SDS011;19292;51.532;7.650;2022-08-18T16:53:00;10.50;;;9.20;;
32934;SDS011;19292;51.532;7.650;2022-08-18T16:55:26;10.20;;;9.10;;
32934;SDS011;19292;51.532;7.650;2022-08-18T16:57:51;10.60;;;8.05;;
32934;SDS011;19292;51.532;7.650;2022-08-18T17:00:35;9.65;;;8.70;;
32934;SDS011;19292;51.532;7.650;2022-08-18T17:03:19;33.08;;;30.95;;
32934;SDS011;19292;51.532;7.650;2022-08-18T17:06:04;9.63;;;8.07;;
32934;SDS011;19292;51.532;7.650;2022-08-18T17:08:32;8.80;;;7.60;;
32934;SDS011;19292;51.532;7.650;2022-08-18T17:11:01;8.48;;;7.60;;
32934;SDS011;19292;51.532;7.650;2022-08-18T17:13:32;8.02;;;6.85;;
32934;SDS011;19292;51.532;7.650;2022-08-18T17:15:58;7.70;;;6.93;;
32934;SDS011;19292;51.532;7.650;2022-08-18T17:18:23;7.40;;;6.38;;
32934;SDS011;19292;51.532;7.650;2022-08-18T17:20:49;9.00;;;6.53;;
32934;SDS011;19292;51.532;7.650;2022-08-18T17:23:15;9.75;;;6.90;;
32934;SDS011;19292;51.532;7.650;2022-08-18T17:25:41;8.07;;;7.35;;
32934;SDS011;19292;51.532;7.650;2022-08-18T17:28:06;7.25;;;6.53;;
32934;SDS011;19292;51.532;7.650;2022-08-18T17:30:33;7.95;;;6.53;;
32934;SDS011;19292;51.532;7.650;2022-08-18T17:33:02;7.40;;;5.95;;